sensor_id;sensor_type;location;lat;lon;timestamp;pressure;altitude;pressure_sealevel;temperature;humidity
26043;BME280;13818;52.156;5.382;2023-04-09T00:01:33;102377.44;;;9.36;100.00
26043;BME280;13818;52.156;5.382;2023-04-09T00:04:03;102381.88;;;9.35;100.00
26043;BME280;13818;52.156;5.382;2023-04-09T00:06:31;102374.63;;;9.45;100.00
26043;BME280;13818;52.156;5.382;2023-04-09T00:08:58;102380.13;;;9.33;100.00
26043;BME280;13818;52.156;5.382;2023-04-09T00:11:25;102374.69;;;9.40;100.00
26043;BME280;13818;52.156;5.382;2023-04-09T00:13:53;102381.00;;;9.35;100.00
26043;BME280;13818;52.156;5.382;2023-04-09T00:16:22;102383.69;;;9.33;100.00
26043;BME280;13818;52.156;5.382;2023-04-09T00:18:52;102386.28;;;9.36;100.00
26043;BME280;13818;52.156;5.382;2023-04-09T00:21:22;102382.81;;;9.33;100.00
26043;BME280;13818;52.156;5.382;2023-04-09T00:23:51;102379.22;;;9.37;100.00
26043;BME280;13818;52.156;5.382;2023-04-09T00:26:19;102373.88;;;9.37;100.00
26043;BME280;13818;52.156;5.382;2023-04-09T00:28:47;102374.69;;;9.42;100.00
26043;BME280;13818;52.156;5.382;2023-04-09T00:31:14;102380.97;;;9.36;100.00
26043;BME280;13818;52.156;5.382;2023-04-09T00:33:43;102370.22;;;9.42;100.00
26043;BME280;13818;52.156;5.382;2023-04-09T00:36:13;102368.31;;;9.49;100.00
26043;BME280;13818;52.156;5.382;2023-04-09T00:38:42;102367.69;;;9.35;100.00
26043;BME280;13818;52.156;5.382;2023-04-09T00:41:13;102368.59;;;9.34;100.00
26043;BME280;13818;52.156;5.382;2023-04-09T00:43:41;102362.44;;;9.30;100.00
26043;BME280;13818;52.156;5.382;2023-04-09T00:46:08;102366.13;;;9.21;100.00
26043;BME280;13818;52.156;5.382;2023-04-09T00:48:36;102357.09;;;9.33;100.00
26043;BME280;13818;52.156;5.382;2023-04-09T00:51:09;102364.22;;;9.31;100.00
26043;BME280;13818;52.156;5.382;2023-04-09T00:53:39;102359.81;;;9.28;100.00
26043;BME280;13818;52.156;5.382;2023-04-09T00:56:16;102362.53;;;9.24;100.00
26043;BME280;13818;52.156;5.382;2023-04-09T00:58:44;102357.22;;;9.25;100.00
26043;BME280;13818;52.156;5.382;2023-04-09T01:01:12;102357.13;;;9.30;100.00
26043;BME280;13818;52.156;5.382;2023-04-09T01:03:41;102351.69;;;9.36;100.00
26043;BME280;13818;52.156;5.382;2023-04-09T01:06:16;102350.88;;;9.34;100.00
26043;BME280;13818;52.156;5.382;2023-04-09T01:08:50;102347.47;;;9.24;100.00
26043;BME280;13818;52.156;5.382;2023-04-09T01:11:35;102346.53;;;9.27;100.00
26043;BME280;13818;52.156;5.382;2023-04-09T01:14:07;102341.34;;;9.18;100.00
26043;BME280;13818;52.156;5.382;2023-04-09T01:16:47;102347.63;;;9.14;100.00
26043;BME280;13818;52.156;5.382;2023-04-09T01:19:28;102338.91;;;9.05;100.00
26043;BME280;13818;52.156;5.382;2023-04-09T01:22:08;102347.59;;;9.17;100.00
26043;BME280;13818;52.156;5.382;2023-04-09T01:24:41;102345.69;;;9.25;100.00
26043;BME280;13818;52.156;5.382;2023-04-09T01:27:19;102338.44;;;9.35;100.00
26043;BME280;13818;52.156;5.382;2023-04-09T01:29:50;102342.88;;;9.34;100.00
26043;BME280;13818;52.156;5.382;2023-04-09T01:32:21;102334.00;;;9.34;100.00
26043;BME280;13818;52.156;5.382;2023-04-09T01:34:59;102341.19;;;9.28;100.00
26043;BME280;13818;52.156;5.382;2023-04-09T01:37:27;102336.63;;;9.35;100.00
26043;BME280;13818;52.156;5.382;2023-04-09T01:39:58;102332.13;;;9.39;100.00
26043;BME280;13818;52.156;5.382;2023-04-09T01:42:26;102329.50;;;9.37;100.00
26043;BME280;13818;52.156;5.382;2023-04-09T01:44:59;102327.72;;;9.38;100.00
26043;BME280;13818;52.156;5.382;2023-04-09T01:47:28;102322.38;;;9.38;100.00
26043;BME280;13818;52.156;5.382;2023-04-09T01:49:57;102320.75;;;9.31;100.00
26043;BME280;13818;52.156;5.382;2023-04-09T01:52:28;102336.84;;;9.24;100.00
26043;BME280;13818;52.156;5.382;2023-04-09T01:54:59;102331.50;;;9.24;100.00
26043;BME280;13818;52.156;5.382;2023-04-09T01:57:29;102325.09;;;9.36;100.00
26043;BME280;13818;52.156;5.382;2023-04-09T01:59:58;102326.03;;;9.34;100.00
26043;BME280;13818;52.156;5.382;2023-04-09T02:02:35;102327.81;;;9.33;100.00
26043;BME280;13818;52.156;5.382;2023-04-09T02:05:06;102325.16;;;9.32;100.00
26043;BME280;13818;52.156;5.382;2023-04-09T02:07:40;102320.72;;;9.32;100.00
26043;BME280;13818;52.156;5.382;2023-04-09T02:10:09;102322.50;;;9.32;100.00
26043;BME280;13818;52.156;5.382;2023-04-09T02:12:43;102317.44;;;9.16;100.00
26043;BME280;13818;52.156;5.382;2023-04-09T02:15:17;102327.09;;;9.23;100.00
26043;BME280;13818;52.156;5.382;2023-04-09T02:17:47;102316.38;;;9.26;100.00
26043;BME280;13818;52.156;5.382;2023-04-09T02:20:17;102322.63;;;9.25;100.00
26043;BME280;13818;52.156;5.382;2023-04-09T02:22:45;102316.34;;;9.30;100.00
26043;BME280;13818;52.156;5.382;2023-04-09T02:25:18;102318.28;;;9.20;100.00
26043;BME280;13818;52.156;5.382;2023-04-09T02:27:46;102319.22;;;9.16;100.00
26043;BME280;13818;52.156;5.382;2023-04-09T02:30:18;102302.28;;;9.21;100.00
26043;BME280;13818;52.156;5.382;2023-04-09T02:32:45;102303.22;;;9.19;100.00
26043;BME280;13818;52.156;5.382;2023-04-09T02:35:13;102308.72;;;9.06;100.00
26043;BME280;13818;52.156;5.382;2023-04-09T02:37:40;102314.75;;;9.18;100.00
26043;BME280;13818;52.156;5.382;2023-04-09T02:40:09;102301.53;;;9.13;100.00
26043;BME280;13818;52.156;5.382;2023-04-09T02:42:39;102304.91;;;9.24;100.00
26043;BME280;13818;52.156;5.382;2023-04-09T02:45:08;102307.59;;;9.23;100.00
26043;BME280;13818;52.156;5.382;2023-04-09T02:47:40;102303.97;;;9.27;100.00
26043;BME280;13818;52.156;5.382;2023-04-09T02:50:13;102297.75;;;9.28;100.00
26043;BME280;13818;52.156;5.382;2023-04-09T02:52:41;102309.09;;;9.39;100.00
26043;BME280;13818;52.156;5.382;2023-04-09T02:55:14;102301.97;;;9.40;100.00
26043;BME280;13818;52.156;5.382;2023-04-09T02:57:42;102295.66;;;9.44;100.00
26043;BME280;13818;52.156;5.382;2023-04-09T03:00:10;102292.34;;;9.31;100.00
26043;BME280;13818;52.156;5.382;2023-04-09T03:02:42;102305.75;;;9.25;100.00
26043;BME280;13818;52.156;5.382;2023-04-09T03:05:10;102298.63;;;9.28;100.00
26043;BME280;13818;52.156;5.382;2023-04-09T03:07:46;102296.75;;;9.34;100.00
26043;BME280;13818;52.156;5.382;2023-04-09T03:10:14;102294.13;;;9.32;100.00
26043;BME280;13818;52.156;5.382;2023-04-09T03:12:45;102298.41;;;9.41;100.00
26043;BME280;13818;52.156;5.382;2023-04-09T03:15:29;102292.06;;;9.48;100.00
26043;BME280;13818;52.156;5.382;2023-04-09T03:17:58;102292.88;;;9.52;100.00
26043;BME280;13818;52.156;5.382;2023-04-09T03:20:30;102292.88;;;9.52;100.00
26043;BME280;13818;52.156;5.382;2023-04-09T03:22:58;102299.94;;;9.53;100.00
26043;BME280;13818;52.156;5.382;2023-04-09T03:25:33;102296.69;;;9.38;100.00
26043;BME280;13818;52.156;5.382;2023-04-09T03:28:02;102290.44;;;9.39;100.00
26043;BME280;13818;52.156;5.382;2023-04-09T03:30:30;102287.00;;;9.33;100.00
26043;BME280;13818;52.156;5.382;2023-04-09T03:33:02;102281.56;;;9.39;100.00
26043;BME280;13818;52.156;5.382;2023-04-09T03:35:33;102283.41;;;9.37;100.00
26043;BME280;13818;52.156;5.382;2023-04-09T03:38:01;102279.81;;;9.39;100.00
26043;BME280;13818;52.156;5.382;2023-04-09T03:40:28;102269.19;;;9.36;100.00
26043;BME280;13818;52.156;5.382;2023-04-09T03:43:00;102279.81;;;9.39;100.00
26043;BME280;13818;52.156;5.382;2023-04-09T03:45:29;102275.56;;;9.27;100.00
26043;BME280;13818;52.156;5.382;2023-04-09T03:47:59;102280.84;;;9.31;100.00
26043;BME280;13818;52.156;5.382;2023-04-09T03:50:29;102278.03;;;9.38;100.00
26043;BME280;13818;52.156;5.382;2023-04-09T03:52:57;102267.41;;;9.38;100.00
26043;BME280;13818;52.156;5.382;2023-04-09T03:55:24;102268.22;;;9.40;100.00
26043;BME280;13818;52.156;5.382;2023-04-09T03:57:53;102263.66;;;9.49;100.00
26043;BME280;13818;52.156;5.382;2023-04-09T04:00:20;102263.72;;;9.44;100.00
26043;BME280;13818;52.156;5.382;2023-04-09T04:02:50;102269.97;;;9.43;100.00
26043;BME280;13818;52.156;5.382;2023-04-09T04:05:22;102276.03;;;9.51;100.00
26043;BME280;13818;52.156;5.382;2023-04-09T04:07:50;102276.09;;;9.47;100.00
26043;BME280;13818;52.156;5.382;2023-04-09T04:10:19;102275.38;;;9.38;100.00
26043;BME280;13818;52.156;5.382;2023-04-09T04:12:49;102275.31;;;9.41;100.00
26043;BME280;13818;52.156;5.382;2023-04-09T04:15:17;102274.47;;;9.39;100.00
26043;BME280;13818;52.156;5.382;2023-04-09T04:17:45;102266.50;;;9.38;100.00
26043;BME280;13818;52.156;5.382;2023-04-09T04:20:13;102270.13;;;9.34;100.00
26043;BME280;13818;52.156;5.382;2023-04-09T04:22:43;102254.09;;;9.38;100.00
26043;BME280;13818;52.156;5.382;2023-04-09T04:25:11;102260.31;;;9.37;100.00
26043;BME280;13818;52.156;5.382;2023-04-09T04:27:43;102265.81;;;9.26;100.00
26043;BME280;13818;52.156;5.382;2023-04-09T04:30:11;102256.16;;;9.22;100.00
26043;BME280;13818;52.156;5.382;2023-04-09T04:32:39;102258.97;;;9.13;100.00
26043;BME280;13818;52.156;5.382;2023-04-09T04:35:07;102257.16;;;9.15;100.00
26043;BME280;13818;52.156;5.382;2023-04-09T04:37:35;102259.84;;;9.14;100.00
26043;BME280;13818;52.156;5.382;2023-04-09T04:40:07;102266.94;;;9.15;100.00
26043;BME280;13818;52.156;5.382;2023-04-09T04:42:35;102259.81;;;9.17;100.00
26043;BME280;13818;52.156;5.382;2023-04-09T04:45:02;102261.50;;;9.21;100.00
26043;BME280;13818;52.156;5.382;2023-04-09T04:47:30;102262.38;;;9.21;100.00
26043;BME280;13818;52.156;5.382;2023-04-09T04:49:58;102265.94;;;9.20;100.00
26043;BME280;13818;52.156;5.382;2023-04-09T04:52:26;102263.16;;;9.28;100.00
26043;BME280;13818;52.156;5.382;2023-04-09T04:54:54;102268.38;;;9.34;100.00
26043;BME280;13818;52.156;5.382;2023-04-09T04:57:23;102259.56;;;9.31;100.00
26043;BME280;13818;52.156;5.382;2023-04-09T04:59:53;102262.22;;;9.29;100.00
26043;BME280;13818;52.156;5.382;2023-04-09T05:02:34;102269.28;;;9.33;100.00
26043;BME280;13818;52.156;5.382;2023-04-09T05:05:22;102266.38;;;9.44;100.00
26043;BME280;13818;52.156;5.382;2023-04-09T05:08:01;102252.28;;;9.39;100.00
26043;BME280;13818;52.156;5.382;2023-04-09T05:10:32;102256.78;;;9.35;100.00
26043;BME280;13818;52.156;5.382;2023-04-09T05:13:04;102255.19;;;9.26;100.00
26043;BME280;13818;52.156;5.382;2023-04-09T05:15:31;102257.81;;;9.30;100.00
26043;BME280;13818;52.156;5.382;2023-04-09T05:18:10;102246.72;;;9.04;100.00
26043;BME280;13818;52.156;5.382;2023-04-09T05:20:40;102243.03;;;9.13;100.00
26043;BME280;13818;52.156;5.382;2023-04-09T05:23:07;102242.03;;;9.19;100.00
26043;BME280;13818;52.156;5.382;2023-04-09T05:25:37;102259.75;;;9.20;100.00
26043;BME280;13818;52.156;5.382;2023-04-09T05:28:08;102253.38;;;9.28;100.00
26043;BME280;13818;52.156;5.382;2023-04-09T05:30:36;102263.06;;;9.34;100.00
26043;BME280;13818;52.156;5.382;2023-04-09T05:33:04;102256.91;;;9.29;100.00
26043;BME280;13818;52.156;5.382;2023-04-09T05:35:32;102261.47;;;9.22;100.00
26043;BME280;13818;52.156;5.382;2023-04-09T05:37:59;102264.09;;;9.24;100.00
26043;BME280;13818;52.156;5.382;2023-04-09T05:40:26;102268.47;;;9.26;100.00
26043;BME280;13818;52.156;5.382;2023-04-09T05:42:58;102264.09;;;9.25;100.00
26043;BME280;13818;52.156;5.382;2023-04-09T05:45:27;102272.06;;;9.24;100.00
26043;BME280;13818;52.156;5.382;2023-04-09T05:47:57;102266.75;;;9.24;100.00
26043;BME280;13818;52.156;5.382;2023-04-09T05:50:24;102264.09;;;9.24;100.00
26043;BME280;13818;52.156;5.382;2023-04-09T05:52:52;102274.72;;;9.25;100.00
26043;BME280;13818;52.156;5.382;2023-04-09T05:55:22;102269.56;;;9.16;100.00
26043;BME280;13818;52.156;5.382;2023-04-09T05:57:51;102275.53;;;9.31;100.00
26043;BME280;13818;52.156;5.382;2023-04-09T06:00:18;102272.75;;;9.37;100.00
26043;BME280;13818;52.156;5.382;2023-04-09T06:02:48;102270.81;;;9.45;100.00
26043;BME280;13818;52.156;5.382;2023-04-09T06:05:16;102263.84;;;9.38;100.00
26043;BME280;13818;52.156;5.382;2023-04-09T06:07:46;102273.53;;;9.42;100.00
26043;BME280;13818;52.156;5.382;2023-04-09T06:10:18;102273.69;;;9.33;100.00
26043;BME280;13818;52.156;5.382;2023-04-09T06:12:53;102277.38;;;9.27;100.00
26043;BME280;13818;52.156;5.382;2023-04-09T06:15:21;102273.81;;;9.26;100.00
26043;BME280;13818;52.156;5.382;2023-04-09T06:17:53;102267.63;;;9.26;100.00
26043;BME280;13818;52.156;5.382;2023-04-09T06:20:23;102278.16;;;9.32;100.00
26043;BME280;13818;52.156;5.382;2023-04-09T06:22:51;102274.41;;;9.42;100.00
26043;BME280;13818;52.156;5.382;2023-04-09T06:25:18;102281.44;;;9.48;100.00
26043;BME280;13818;52.156;5.382;2023-04-09T06:27:48;102281.50;;;9.43;100.00
26043;BME280;13818;52.156;5.382;2023-04-09T06:30:16;102282.25;;;9.50;100.00
26043;BME280;13818;52.156;5.382;2023-04-09T06:32:47;102284.06;;;9.50;100.00
26043;BME280;13818;52.156;5.382;2023-04-09T06:35:23;102285.03;;;9.44;100.00
26043;BME280;13818;52.156;5.382;2023-04-09T06:37:56;102290.19;;;9.53;100.00
26043;BME280;13818;52.156;5.382;2023-04-09T06:40:23;102289.25;;;9.56;100.00
26043;BME280;13818;52.156;5.382;2023-04-09T06:42:54;102283.97;;;9.53;100.00
26043;BME280;13818;52.156;5.382;2023-04-09T06:45:22;102295.38;;;9.61;100.00
26043;BME280;13818;52.156;5.382;2023-04-09T06:47:52;102288.31;;;9.58;100.00
26043;BME280;13818;52.156;5.382;2023-04-09T06:50:22;102290.75;;;9.71;100.00
26043;BME280;13818;52.156;5.382;2023-04-09T06:52:53;102281.84;;;9.73;100.00
26043;BME280;13818;52.156;5.382;2023-04-09T06:55:22;102290.75;;;9.71;100.00
26043;BME280;13818;52.156;5.382;2023-04-09T06:57:55;102290.75;;;9.71;100.00
26043;BME280;13818;52.156;5.382;2023-04-09T07:00:23;102292.75;;;9.59;100.00
26043;BME280;13818;52.156;5.382;2023-04-09T07:02:56;102291.84;;;9.59;100.00
26043;BME280;13818;52.156;5.382;2023-04-09T07:05:26;102304.22;;;9.61;100.00
26043;BME280;13818;52.156;5.382;2023-04-09T07:07:54;102298.03;;;9.61;100.00
26043;BME280;13818;52.156;5.382;2023-04-09T07:10:30;102298.75;;;9.71;100.00
26043;BME280;13818;52.156;5.382;2023-04-09T07:12:58;102296.91;;;9.73;100.00
26043;BME280;13818;52.156;5.382;2023-04-09T07:15:26;102299.41;;;9.82;100.00
26043;BME280;13818;52.156;5.382;2023-04-09T07:17:55;102296.78;;;9.79;100.00
26043;BME280;13818;52.156;5.382;2023-04-09T07:20:28;102292.38;;;9.78;100.00
26043;BME280;13818;52.156;5.382;2023-04-09T07:22:58;102298.31;;;9.92;100.00
26043;BME280;13818;52.156;5.382;2023-04-09T07:25:25;102302.03;;;9.84;100.00
26043;BME280;13818;52.156;5.382;2023-04-09T07:27:53;102307.41;;;9.81;100.00
26043;BME280;13818;52.156;5.382;2023-04-09T07:30:23;102297.53;;;9.86;100.00
26043;BME280;13818;52.156;5.382;2023-04-09T07:32:56;102302.41;;;10.09;100.00
26043;BME280;13818;52.156;5.382;2023-04-09T07:35:26;102297.75;;;10.20;100.00
26043;BME280;13818;52.156;5.382;2023-04-09T07:37:55;102316.09;;;10.34;100.00
26043;BME280;13818;52.156;5.382;2023-04-09T07:40:27;102312.13;;;10.55;100.00
26043;BME280;13818;52.156;5.382;2023-04-09T07:42:55;102302.75;;;10.75;100.00
26043;BME280;13818;52.156;5.382;2023-04-09T07:45:25;102312.97;;;10.95;100.00
26043;BME280;13818;52.156;5.382;2023-04-09T07:47:53;102308.13;;;11.11;100.00
26043;BME280;13818;52.156;5.382;2023-04-09T07:50:26;102289.66;;;11.38;100.00
26043;BME280;13818;52.156;5.382;2023-04-09T07:52:55;102305.66;;;11.38;100.00
26043;BME280;13818;52.156;5.382;2023-04-09T07:55:25;102312.78;;;11.03;100.00
26043;BME280;13818;52.156;5.382;2023-04-09T07:57:58;102308.34;;;11.03;100.00
26043;BME280;13818;52.156;5.382;2023-04-09T08:00:28;102296.38;;;11.53;100.00
26043;BME280;13818;52.156;5.382;2023-04-09T08:02:58;102290.53;;;11.71;100.00
26043;BME280;13818;52.156;5.382;2023-04-09T08:05:37;102295.94;;;12.01;100.00
26043;BME280;13818;52.156;5.382;2023-04-09T08:08:06;102299.34;;;12.38;100.00
26043;BME280;13818;52.156;5.382;2023-04-09T08:10:36;102298.66;;;12.60;100.00
26043;BME280;13818;52.156;5.382;2023-04-09T08:13:04;102295.09;;;12.88;100.00
26043;BME280;13818;52.156;5.382;2023-04-09T08:15:39;102298.06;;;12.78;100.00
26043;BME280;13818;52.156;5.382;2023-04-09T08:18:16;102299.44;;;12.92;100.00
26043;BME280;13818;52.156;5.382;2023-04-09T08:20:45;102299.91;;;12.48;100.00
26043;BME280;13818;52.156;5.382;2023-04-09T08:23:14;102296.16;;;13.10;100.00
26043;BME280;13818;52.156;5.382;2023-04-09T08:25:41;102304.69;;;12.95;100.00
26043;BME280;13818;52.156;5.382;2023-04-09T08:28:09;102296.09;;;11.95;100.00
26043;BME280;13818;52.156;5.382;2023-04-09T08:30:41;102302.75;;;12.43;100.00
26043;BME280;13818;52.156;5.382;2023-04-09T08:33:08;102300.44;;;12.61;100.00
26043;BME280;13818;52.156;5.382;2023-04-09T08:35:36;102295.69;;;12.11;100.00
26043;BME280;13818;52.156;5.382;2023-04-09T08:38:08;102295.69;;;12.41;100.00
26043;BME280;13818;52.156;5.382;2023-04-09T08:40:37;102299.09;;;13.02;100.00
26043;BME280;13818;52.156;5.382;2023-04-09T08:43:09;102309.59;;;13.09;100.00
26043;BME280;13818;52.156;5.382;2023-04-09T08:45:41;102295.47;;;13.30;100.00
26043;BME280;13818;52.156;5.382;2023-04-09T08:48:12;102301.09;;;13.49;100.00
26043;BME280;13818;52.156;5.382;2023-04-09T08:50:39;102297.41;;;13.77;100.00
26043;BME280;13818;52.156;5.382;2023-04-09T08:53:18;102294.94;;;13.96;100.00
26043;BME280;13818;52.156;5.382;2023-04-09T08:55:49;102296.94;;;13.66;100.00
26043;BME280;13818;52.156;5.382;2023-04-09T08:58:16;102289.53;;;13.73;100.00
26043;BME280;13818;52.156;5.382;2023-04-09T09:00:44;102291.22;;;13.75;100.00
26043;BME280;13818;52.156;5.382;2023-04-09T09:03:12;102290.88;;;13.61;100.00
26043;BME280;13818;52.156;5.382;2023-04-09T09:05:40;102291.22;;;13.50;100.00
26043;BME280;13818;52.156;5.382;2023-04-09T09:08:10;102293.75;;;13.55;100.00
26043;BME280;13818;52.156;5.382;2023-04-09T09:10:41;102277.94;;;13.72;100.00
26043;BME280;13818;52.156;5.382;2023-04-09T09:13:23;102285.06;;;14.21;100.00
26043;BME280;13818;52.156;5.382;2023-04-09T09:16:10;102283.66;;;13.87;100.00
26043;BME280;13818;52.156;5.382;2023-04-09T09:18:43;102277.97;;;14.20;100.00
26043;BME280;13818;52.156;5.382;2023-04-09T09:21:11;102275.47;;;14.15;100.00
26043;BME280;13818;52.156;5.382;2023-04-09T09:23:39;102283.44;;;14.16;100.00
26043;BME280;13818;52.156;5.382;2023-04-09T09:26:16;102286.47;;;14.77;100.00
26043;BME280;13818;52.156;5.382;2023-04-09T09:28:46;102291.34;;;14.67;100.00
26043;BME280;13818;52.156;5.382;2023-04-09T09:31:18;102275.59;;;14.58;100.00
26043;BME280;13818;52.156;5.382;2023-04-09T09:33:53;102269.09;;;14.65;100.00
26043;BME280;13818;52.156;5.382;2023-04-09T09:36:33;102272.72;;;14.62;100.00
26043;BME280;13818;52.156;5.382;2023-04-09T09:39:03;102270.47;;;14.96;100.00
26043;BME280;13818;52.156;5.382;2023-04-09T09:41:35;102273.91;;;15.00;100.00
26043;BME280;13818;52.156;5.382;2023-04-09T09:44:07;102270.97;;;14.15;100.00
26043;BME280;13818;52.156;5.382;2023-04-09T09:46:36;102257.06;;;14.06;100.00
26043;BME280;13818;52.156;5.382;2023-04-09T09:49:05;102259.22;;;14.20;100.00
26043;BME280;13818;52.156;5.382;2023-04-09T09:51:36;102266.78;;;14.08;100.00
26043;BME280;13818;52.156;5.382;2023-04-09T09:54:06;102272.56;;;14.43;100.00
26043;BME280;13818;52.156;5.382;2023-04-09T09:56:34;102265.38;;;14.22;100.00
26043;BME280;13818;52.156;5.382;2023-04-09T09:59:15;102258.84;;;14.29;100.00
26043;BME280;13818;52.156;5.382;2023-04-09T10:01:47;102262.06;;;14.37;100.00
26043;BME280;13818;52.156;5.382;2023-04-09T10:04:15;102260.38;;;14.12;100.00
26043;BME280;13818;52.156;5.382;2023-04-09T10:06:46;102256.94;;;14.09;100.00
26043;BME280;13818;52.156;5.382;2023-04-09T10:09:16;102244.22;;;14.14;100.00
26043;BME280;13818;52.156;5.382;2023-04-09T10:11:45;102251.72;;;14.28;100.00
26043;BME280;13818;52.156;5.382;2023-04-09T10:14:18;102242.59;;;14.32;100.00
26043;BME280;13818;52.156;5.382;2023-04-09T10:16:49;102242.28;;;14.18;100.00
26043;BME280;13818;52.156;5.382;2023-04-09T10:19:20;102234.78;;;14.27;100.00
26043;BME280;13818;52.156;5.382;2023-04-09T10:21:52;102234.56;;;14.32;100.00
26043;BME280;13818;52.156;5.382;2023-04-09T10:24:21;102220.66;;;14.44;100.00
26043;BME280;13818;52.156;5.382;2023-04-09T10:26:53;102225.53;;;14.35;100.00
26043;BME280;13818;52.156;5.382;2023-04-09T10:29:30;102220.44;;;14.28;100.00
26043;BME280;13818;52.156;5.382;2023-04-09T10:32:05;102213.25;;;14.29;100.00
26043;BME280;13818;52.156;5.382;2023-04-09T10:34:47;102211.66;;;14.01;100.00
26043;BME280;13818;52.156;5.382;2023-04-09T10:37:20;102211.66;;;14.01;100.00
26043;BME280;13818;52.156;5.382;2023-04-09T10:39:50;102205.59;;;13.96;100.00
26043;BME280;13818;52.156;5.382;2023-04-09T10:42:19;102218.78;;;14.24;100.00
26043;BME280;13818;52.156;5.382;2023-04-09T10:45:06;102212.09;;;14.35;100.00
26043;BME280;13818;52.156;5.382;2023-04-09T10:47:35;102202.94;;;14.18;100.00
26043;BME280;13818;52.156;5.382;2023-04-09T10:50:17;102202.06;;;14.18;100.00
26043;BME280;13818;52.156;5.382;2023-04-09T10:52:52;102200.94;;;14.23;100.00
26043;BME280;13818;52.156;5.382;2023-04-09T10:55:35;102190.59;;;14.14;100.00
26043;BME280;13818;52.156;5.382;2023-04-09T10:58:06;102192.53;;;14.32;100.00
26043;BME280;13818;52.156;5.382;2023-04-09T11:00:38;102195.03;;;14.59;100.00
26043;BME280;13818;52.156;5.382;2023-04-09T11:03:18;102182.28;;;14.87;100.00
26043;BME280;13818;52.156;5.382;2023-04-09T11:05:47;102180.53;;;15.06;100.00
26043;BME280;13818;52.156;5.382;2023-04-09T11:08:17;102172.22;;;15.12;100.00
26043;BME280;13818;52.156;5.382;2023-04-09T11:10:47;102177.91;;;15.05;100.00
26043;BME280;13818;52.156;5.382;2023-04-09T11:13:35;102178.59;;;15.10;100.00
26043;BME280;13818;52.156;5.382;2023-04-09T11:16:07;102177.91;;;15.05;100.00
26043;BME280;13818;52.156;5.382;2023-04-09T11:18:35;102173.38;;;14.64;100.00
26043;BME280;13818;52.156;5.382;2023-04-09T11:21:04;102171.41;;;14.69;100.00
26043;BME280;13818;52.156;5.382;2023-04-09T11:23:34;102179.19;;;14.96;100.00
26043;BME280;13818;52.156;5.382;2023-04-09T11:26:02;102163.75;;;15.01;100.00
26043;BME280;13818;52.156;5.382;2023-04-09T11:28:29;102174.56;;;15.20;100.00
26043;BME280;13818;52.156;5.382;2023-04-09T11:30:57;102169.84;;;15.25;100.00
26043;BME280;13818;52.156;5.382;2023-04-09T11:33:32;102167.66;;;15.15;100.00
26043;BME280;13818;52.156;5.382;2023-04-09T11:35:59;102161.81;;;15.05;100.00
26043;BME280;13818;52.156;5.382;2023-04-09T11:38:30;102160.00;;;15.26;100.00
26043;BME280;13818;52.156;5.382;2023-04-09T11:40:57;102165.50;;;15.02;99.93
26043;BME280;13818;52.156;5.382;2023-04-09T11:43:25;102165.72;;;15.18;97.41
26043;BME280;13818;52.156;5.382;2023-04-09T11:45:53;102164.16;;;15.33;96.10
26043;BME280;13818;52.156;5.382;2023-04-09T11:48:20;102161.16;;;15.39;95.32
26043;BME280;13818;52.156;5.382;2023-04-09T11:50:51;102162.94;;;15.20;94.37
26043;BME280;13818;52.156;5.382;2023-04-09T11:53:22;102167.38;;;15.21;93.20
26043;BME280;13818;52.156;5.382;2023-04-09T11:55:53;102157.03;;;15.32;94.22
26043;BME280;13818;52.156;5.382;2023-04-09T11:58:21;102158.19;;;15.45;90.90
26043;BME280;13818;52.156;5.382;2023-04-09T12:00:52;102159.28;;;15.41;90.63
26043;BME280;13818;52.156;5.382;2023-04-09T12:03:29;102158.91;;;15.30;91.90
26043;BME280;13818;52.156;5.382;2023-04-09T12:06:00;102148.84;;;15.15;91.31
26043;BME280;13818;52.156;5.382;2023-04-09T12:08:29;102152.75;;;15.07;93.85
26043;BME280;13818;52.156;5.382;2023-04-09T12:11:06;102145.97;;;14.99;95.45
26043;BME280;13818;52.156;5.382;2023-04-09T12:13:35;102150.28;;;15.42;93.46
26043;BME280;13818;52.156;5.382;2023-04-09T12:16:07;102145.47;;;15.30;87.86
26043;BME280;13818;52.156;5.382;2023-04-09T12:18:35;102141.56;;;15.37;89.83
26043;BME280;13818;52.156;5.382;2023-04-09T12:21:05;102143.63;;;15.70;90.85
26043;BME280;13818;52.156;5.382;2023-04-09T12:23:35;102141.97;;;15.68;89.14
26043;BME280;13818;52.156;5.382;2023-04-09T12:26:02;102150.13;;;15.45;89.29
26043;BME280;13818;52.156;5.382;2023-04-09T12:28:30;102139.06;;;14.93;90.34
26043;BME280;13818;52.156;5.382;2023-04-09T12:30:57;102137.16;;;14.95;90.15
26043;BME280;13818;52.156;5.382;2023-04-09T12:33:27;102138.34;;;15.29;90.37
26043;BME280;13818;52.156;5.382;2023-04-09T12:35:54;102139.19;;;15.10;89.09
26043;BME280;13818;52.156;5.382;2023-04-09T12:38:24;102144.75;;;15.06;86.06
26043;BME280;13818;52.156;5.382;2023-04-09T12:40:52;102138.81;;;15.39;88.28
26043;BME280;13818;52.156;5.382;2023-04-09T12:43:19;102141.94;;;15.49;86.12
26043;BME280;13818;52.156;5.382;2023-04-09T12:45:54;102143.34;;;15.18;82.47
26043;BME280;13818;52.156;5.382;2023-04-09T12:48:24;102142.06;;;15.45;84.87
26043;BME280;13818;52.156;5.382;2023-04-09T12:50:52;102132.31;;;15.64;83.17
26043;BME280;13818;52.156;5.382;2023-04-09T12:53:25;102143.31;;;15.38;78.10
26043;BME280;13818;52.156;5.382;2023-04-09T12:55:56;102145.47;;;15.30;78.42
26043;BME280;13818;52.156;5.382;2023-04-09T12:58:24;102139.59;;;15.22;80.17
26043;BME280;13818;52.156;5.382;2023-04-09T13:00:54;102136.09;;;15.20;80.46
26043;BME280;13818;52.156;5.382;2023-04-09T13:03:25;102130.25;;;15.31;79.53
26043;BME280;13818;52.156;5.382;2023-04-09T13:05:53;102134.09;;;15.63;80.10